Kemps Landing, Louisiana
Current Conditions -  °F | °C
As of 2:15 PM on Saturday 20 Dec 2014 (Local Time) from KHEZ Reporting Station
Few Clouds Few Clouds  
Wind Chill: 57°   Ceiling: Unl
Heat Index: 57°   Visibility: 10mi
Dew Point: 43°   Wind: 7mph
Humidity: 59%   Direction: 10°N
Pressure: 30.14"   Gusts: NA
Location:  31.3468°N, 91.6624°W
Report Text: KHEZ 202015Z AUTO 01006KT 10SM FEW033 14/06 A3014 RMK AO1
Loading
Personal Weather Stations






























Interactive Weather Map New forecast layout! Learn more

10-Day Weather Forecast

Advertisements
Track Severe Weather on mobile